createdAt,value
2023-01-11T01:15:46.799Z,86.30
2023-01-11T01:18:13.858Z,84.91
2023-01-11T01:20:40.832Z,84.71
2023-01-11T01:23:07.976Z,84.60
2023-01-11T01:25:37.187Z,84.24
2023-01-11T01:28:04.436Z,84.42
2023-01-11T01:30:31.368Z,84.73
2023-01-11T01:32:58.336Z,84.80
2023-01-11T01:35:25.249Z,84.69
2023-01-11T01:37:52.195Z,84.30
2023-01-11T01:40:19.203Z,83.91
2023-01-11T01:42:46.177Z,83.71
2023-01-11T01:45:24.514Z,83.64
2023-01-11T01:47:58.407Z,83.63
2023-01-11T01:50:41.589Z,83.35
2023-01-11T01:53:13.056Z,82.81
2023-01-11T01:55:43.374Z,82.61
2023-01-11T01:58:11.997Z,82.51
2023-01-11T02:00:40.495Z,82.38
2023-01-11T02:03:07.486Z,82.30
2023-01-11T02:05:34.526Z,82.42
2023-01-11T02:08:01.510Z,82.46
2023-01-11T02:10:29.133Z,82.11
2023-01-11T02:12:59.075Z,82.21
2023-01-11T02:15:26.158Z,82.59
2023-01-11T02:17:53.181Z,82.77
2023-01-11T02:20:42.233Z,82.83
2023-01-11T02:23:36.665Z,82.47
2023-01-11T02:26:36.137Z,82.25
2023-01-11T02:29:38.678Z,82.23
2023-01-11T02:32:27.248Z,82.61
2023-01-11T02:35:07.830Z,82.70
2023-01-11T02:38:01.913Z,82.50
2023-01-11T02:40:51.130Z,82.25
2023-01-11T02:43:47.547Z,82.22
2023-01-11T02:46:23.366Z,82.22
2023-01-11T02:49:01.980Z,82.48
2023-01-11T02:51:35.115Z,82.43
2023-01-11T02:54:04.658Z,82.19
2023-01-11T02:56:33.812Z,82.02
2023-01-11T02:59:01.725Z,82.08
2023-01-11T03:01:28.757Z,82.28
2023-01-11T03:03:56.259Z,82.30
2023-01-11T03:06:27.621Z,82.48
2023-01-11T03:09:01.377Z,82.38
2023-01-11T03:12:09.361Z,82.15
2023-01-11T03:14:49.232Z,81.86
2023-01-11T03:17:22.892Z,81.71
2023-01-11T03:19:54.658Z,81.83
2023-01-11T03:22:59.293Z,81.94
2023-01-11T03:25:43.070Z,81.88
2023-01-11T03:28:36.179Z,81.56
2023-01-11T03:31:21.496Z,81.31
2023-01-11T03:34:02.852Z,81.43
2023-01-11T03:36:42.201Z,81.47
2023-01-11T03:39:19.754Z,81.59
2023-01-11T03:41:46.847Z,81.39
2023-01-11T03:44:14.635Z,81.21
2023-01-11T03:46:44.745Z,81.08
2023-01-11T03:49:14.441Z,80.98
2023-01-11T03:51:45.255Z,81.07
2023-01-11T03:54:14.394Z,81.06
2023-01-11T03:57:02.351Z,80.82
2023-01-11T03:59:29.427Z,80.68
2023-01-11T04:01:56.468Z,80.75
2023-01-11T04:04:23.794Z,81.04
2023-01-11T04:06:50.921Z,81.02
2023-01-11T04:09:17.823Z,80.96
2023-01-11T04:11:45.089Z,80.90
2023-01-11T04:14:12.025Z,80.62
2023-01-11T04:16:39.001Z,80.62
2023-01-11T04:19:05.963Z,80.90
2023-01-11T04:21:33.096Z,80.86
2023-01-11T04:23:59.951Z,81.10
2023-01-11T04:26:27.048Z,81.09
2023-01-11T04:28:54.514Z,80.85
2023-01-11T04:31:21.656Z,80.68
2023-01-11T04:33:48.605Z,80.63
2023-01-11T04:36:15.657Z,80.75
2023-01-11T04:38:42.629Z,80.92
2023-01-11T04:41:28.094Z,80.81
2023-01-11T04:43:56.390Z,80.51
2023-01-11T04:46:23.947Z,80.44
2023-01-11T04:48:51.244Z,80.51
2023-01-11T04:51:18.210Z,80.57
2023-01-11T04:53:47.293Z,80.62
2023-01-11T04:56:14.290Z,80.61
2023-01-11T04:58:41.313Z,80.43
2023-01-11T05:01:10.112Z,80.55
2023-01-11T05:03:37.171Z,80.58
2023-01-11T07:23:29.305Z,91.76
2023-01-11T07:25:56.350Z,90.08
2023-01-11T07:28:23.203Z,89.91
2023-01-11T07:30:58.563Z,90.06
2023-01-11T07:33:26.156Z,90.27
2023-01-11T07:35:53.181Z,90.40
2023-01-11T07:38:20.125Z,90.34
2023-01-11T07:40:47.063Z,90.07
2023-01-11T07:43:19.142Z,89.67
2023-01-11T07:45:49.593Z,89.55
2023-01-11T07:48:24.853Z,89.54
2023-01-11T07:50:52.685Z,89.54
2023-01-11T07:53:19.823Z,89.40
2023-01-11T07:55:47.515Z,89.14
2023-01-11T07:58:14.723Z,89.15
2023-01-11T08:00:41.859Z,89.22
2023-01-11T08:03:09.128Z,89.39
2023-01-11T08:05:36.371Z,89.44
2023-01-11T08:08:03.916Z,89.16
2023-01-11T08:10:30.805Z,88.92
2023-01-11T08:13:16.952Z,88.63
2023-01-11T08:15:44.007Z,88.70
2023-01-11T08:18:12.102Z,88.77
2023-01-11T08:20:39.967Z,88.65
2023-01-11T08:23:08.235Z,88.17
2023-01-11T08:25:35.189Z,88.09
2023-01-11T08:28:02.918Z,88.29
2023-01-11T08:30:29.982Z,88.45
2023-01-11T08:32:57.722Z,88.44
2023-01-11T08:35:25.689Z,88.40
2023-01-11T08:37:52.736Z,88.29
2023-01-11T08:40:21.061Z,88.28
2023-01-11T08:42:58.585Z,88.55
2023-01-11T08:45:25.737Z,88.47
2023-01-11T08:47:57.442Z,88.21
2023-01-11T08:50:26.761Z,88.01
2023-01-11T08:52:53.941Z,87.94
2023-01-11T08:55:20.795Z,87.99
2023-01-11T08:57:47.740Z,88.04
2023-01-11T09:00:15.638Z,87.75
2023-01-11T09:02:42.723Z,87.69
2023-01-11T09:05:12.278Z,87.93
2023-01-11T09:07:41.480Z,88.02
2023-01-11T09:10:09.011Z,87.99
2023-01-11T09:12:36.146Z,87.86
2023-01-11T09:15:06.205Z,87.84
2023-01-11T09:17:33.855Z,88.18
2023-01-11T09:20:00.790Z,88.39
2023-01-11T09:22:27.667Z,88.03
2023-01-11T09:24:55.624Z,87.97
2023-01-11T09:27:22.427Z,87.83
2023-01-11T09:29:49.369Z,88.13
2023-01-11T09:32:16.372Z,88.34
2023-01-11T09:34:46.686Z,88.50
2023-01-11T09:37:14.567Z,88.36
2023-01-11T09:39:42.316Z,88.36
2023-01-11T09:42:39.163Z,88.47
2023-01-11T09:45:18.871Z,88.51
2023-01-11T09:48:11.809Z,88.42
2023-01-11T09:50:45.845Z,88.44
2023-01-11T09:53:18.728Z,88.62
2023-01-11T09:55:47.245Z,88.82
2023-01-11T09:58:29.405Z,88.69
2023-01-11T10:01:22.101Z,88.63
2023-01-11T10:04:20.609Z,88.72
2023-01-11T10:06:58.845Z,88.73
2023-01-11T13:28:39.328Z,92.77
2023-01-11T13:31:08.091Z,90.73
2023-01-11T13:33:36.277Z,90.56
2023-01-11T13:36:22.808Z,90.58
2023-01-11T13:45:17.283Z,90.09
2023-01-11T13:47:47.240Z,89.51
2023-01-11T13:50:34.863Z,88.97
2023-01-11T13:53:06.274Z,88.79
2023-01-11T13:56:19.361Z,88.87
2023-01-11T13:59:24.944Z,89.31
2023-01-11T14:02:04.979Z,89.50
2023-01-11T14:04:50.357Z,88.99
2023-01-11T14:08:01.179Z,88.91
2023-01-11T14:10:46.373Z,88.83
2023-01-11T14:13:48.359Z,88.97
2023-01-11T14:16:19.500Z,88.90
2023-01-11T14:18:51.808Z,88.44
2023-01-11T14:21:23.839Z,88.02
2023-01-11T14:23:52.216Z,88.04
2023-01-11T14:26:57.333Z,88.12
2023-01-11T14:29:52.299Z,88.23
2023-01-11T14:32:35.376Z,88.08
2023-01-11T14:35:34.353Z,87.85
2023-01-11T14:38:32.594Z,87.78
2023-01-11T14:41:45.921Z,88.23
2023-01-11T14:44:37.954Z,88.48
2023-01-11T14:47:42.217Z,88.33
2023-01-11T14:50:20.172Z,88.03
2023-01-11T14:52:58.087Z,87.75
2023-01-11T14:55:30.345Z,87.51
2023-01-11T14:57:57.443Z,87.64
2023-01-11T15:00:24.389Z,87.36
2023-01-11T15:03:01.115Z,87.29
2023-01-11T15:05:31.663Z,87.33
2023-01-11T15:08:23.944Z,87.55
2023-01-11T15:11:07.865Z,87.62
2023-01-11T15:13:44.949Z,87.67
2023-01-11T15:16:33.812Z,87.90
2023-01-11T15:19:06.966Z,88.13
2023-01-11T15:21:35.041Z,88.11
2023-01-11T15:24:01.953Z,88.07
2023-01-11T15:26:29.187Z,87.81
2023-01-11T15:28:59.878Z,87.78
2023-01-11T15:31:48.293Z,87.87
2023-01-11T15:34:27.704Z,88.08
2023-01-11T15:37:02.694Z,88.10
2023-01-11T15:40:14.113Z,88.04
2023-01-11T15:42:54.131Z,87.84
2023-01-11T15:45:27.697Z,87.86
2023-01-11T15:48:06.941Z,88.03
2023-01-11T15:50:58.504Z,87.86
2023-01-11T15:53:33.967Z,87.72
2023-01-11T15:56:21.093Z,87.64
2023-01-11T15:59:14.337Z,87.61
2023-01-11T16:02:05.645Z,87.53
2023-01-11T18:57:10.541Z,93.90
2023-01-11T18:59:37.791Z,91.74
2023-01-11T19:02:24.552Z,91.67
2023-01-11T19:04:52.341Z,91.56
2023-01-11T19:07:19.422Z,91.73
2023-01-11T19:09:46.506Z,91.75
2023-01-11T19:12:16.031Z,91.62
2023-01-11T19:14:43.310Z,91.40
2023-01-11T19:17:13.510Z,91.45
2023-01-11T19:19:40.799Z,91.57
2023-01-11T19:22:10.459Z,91.36
2023-01-11T19:24:37.690Z,91.09
2023-01-11T19:27:04.876Z,90.93
2023-01-11T19:29:31.988Z,90.78
2023-01-11T19:31:59.217Z,90.79
2023-01-11T19:34:26.315Z,90.77
2023-01-11T19:36:53.477Z,90.66
2023-01-11T19:39:20.511Z,90.68
2023-01-11T19:42:03.333Z,90.57
2023-01-11T19:44:32.076Z,90.56
2023-01-11T19:47:10.935Z,90.46
2023-01-11T19:49:40.134Z,90.35
2023-01-11T19:52:13.551Z,90.38
2023-01-11T19:54:44.207Z,90.50
2023-01-11T19:57:12.629Z,90.49
2023-01-11T19:59:39.866Z,90.18
2023-01-11T20:02:07.652Z,89.96
2023-01-11T20:04:35.097Z,89.99
2023-01-11T20:07:02.276Z,90.23
2023-01-11T20:09:29.806Z,90.20
2023-01-11T20:11:59.029Z,90.15
2023-01-11T20:20:19.736Z,89.77
2023-01-11T20:22:46.756Z,89.76
2023-01-11T20:25:13.984Z,89.47
2023-01-11T20:27:41.132Z,89.13
2023-01-11T20:30:09.682Z,89.25
2023-01-11T20:32:41.830Z,89.29
2023-01-11T20:42:47.366Z,88.85
2023-01-11T20:45:14.424Z,88.43
2023-01-11T20:47:41.699Z,88.51
2023-01-11T20:50:09.413Z,88.61
2023-01-11T20:52:38.975Z,88.74
2023-01-11T20:55:06.855Z,88.47
2023-01-11T20:57:34.025Z,88.50
2023-01-11T21:00:01.215Z,88.67
2023-01-11T21:02:28.607Z,89.07
2023-01-11T21:04:57.248Z,89.18
2023-01-11T21:07:24.399Z,88.90
2023-01-11T21:09:51.877Z,88.76
2023-01-11T21:12:19.940Z,88.51
2023-01-11T21:14:47.233Z,88.56
2023-01-11T21:17:14.613Z,89.04
2023-01-11T21:19:47.550Z,88.90
2023-01-11T21:22:14.564Z,88.76
2023-01-11T21:24:41.588Z,88.81
2023-01-11T21:27:08.739Z,88.81
2023-01-11T21:29:36.092Z,88.91
2023-01-11T21:32:03.148Z,88.77
2023-01-11T21:34:30.270Z,88.57
2023-01-11T21:36:57.393Z,88.58
2023-01-11T21:39:24.721Z,88.68
